Time;durP1;ratioP1;P1;durP2;ratioP2;P2;SDS_P1;SDS_P2;PMS_P1;PMS_P2;Temp;Humidity;BMP_temperature;BMP_pressure;BME280_temperature;BME280_humidity;BME280_pressure;Samples;Min_cycle;Max_cycle;Signal;HPM_P1;HPM_P2
2023/09/23 00:01:04;;;;;;;4.65;3.90;;;;;;;;;;5127433;27;43172;-67
2023/09/23 00:03:33;;;;;;;4.07;3.67;;;;;;;;;;5122618;27;40664;-67
2023/09/23 00:06:03;;;;;;;3.78;3.38;;;;;;;;;;5129069;27;42962;-67
2023/09/23 00:08:32;;;;;;;4.03;3.33;;;;;;;;;;5127467;27;42651;-67
2023/09/23 00:11:00;;;;;;;3.28;2.92;;;;;;;;;;5128783;27;41950;-67
2023/09/23 00:13:28;;;;;;;5.20;3.13;;;;;;;;;;5128229;27;41565;-67
2023/09/23 00:15:56;;;;;;;3.58;3.28;;;;;;;;;;5128987;27;42686;-67
2023/09/23 00:18:24;;;;;;;3.15;2.88;;;;;;;;;;5128628;27;42800;-67
2023/09/23 00:20:52;;;;;;;2.97;2.65;;;;;;;;;;5128243;27;42901;-67
2023/09/23 00:23:21;;;;;;;6.30;4.45;;;;;;;;;;5126607;27;41515;-67
2023/09/23 00:25:49;;;;;;;4.03;3.53;;;;;;;;;;5128075;27;41669;-67
2023/09/23 00:28:20;;;;;;;4.35;3.72;;;;;;;;;;5128022;27;42231;-67
2023/09/23 00:30:48;;;;;;;3.47;3.17;;;;;;;;;;5125771;27;41137;-67
2023/09/23 00:33:17;;;;;;;4.93;4.35;;;;;;;;;;5113948;27;41588;-67
2023/09/23 00:35:47;;;;;;;4.03;3.63;;;;;;;;;;5128543;27;42499;-67
2023/09/23 00:38:17;;;;;;;2.60;2.30;;;;;;;;;;5128482;27;41987;-67
2023/09/23 00:40:47;;;;;;;4.03;3.33;;;;;;;;;;5128426;27;42227;-67
2023/09/23 00:43:18;;;;;;;4.82;4.32;;;;;;;;;;5128604;27;41460;-67
2023/09/23 00:45:47;;;;;;;2.95;2.65;;;;;;;;;;5109332;27;40168;-67
2023/09/23 00:48:18;;;;;;;3.47;3.17;;;;;;;;;;5133661;27;43810;-67
2023/09/23 00:50:46;;;;;;;3.38;2.72;;;;;;;;;;5134567;27;41370;-67
2023/09/23 00:53:14;;;;;;;3.88;3.10;;;;;;;;;;5135095;27;41161;-67
2023/09/23 00:55:51;;;;;;;3.70;3.28;;;;;;;;;;5115452;27;42177;-67
2023/09/23 00:58:21;;;;;;;3.75;2.88;;;;;;;;;;5115616;27;40079;-67
2023/09/23 01:00:51;;;;;;;3.72;3.22;;;;;;;;;;5135259;27;42726;-67
2023/09/23 01:03:19;;;;;;;2.17;1.98;;;;;;;;;;5135469;27;41256;-67
2023/09/23 01:05:48;;;;;;;2.25;1.77;;;;;;;;;;5115789;27;40657;-67
2023/09/23 01:08:19;;;;;;;2.95;2.13;;;;;;;;;;5135257;27;42986;-67
2023/09/23 01:10:48;;;;;;;3.10;2.80;;;;;;;;;;5134743;27;41551;-67
2023/09/23 01:13:19;;;;;;;2.47;1.90;;;;;;;;;;5134713;27;41691;-67
2023/09/23 01:15:49;;;;;;;1.65;1.55;;;;;;;;;;5120745;27;42527;-67
2023/09/23 01:18:17;;;;;;;2.40;1.80;;;;;;;;;;5134313;27;41363;-67
2023/09/23 01:20:48;;;;;;;1.55;1.45;;;;;;;;;;5133831;27;41844;-67
2023/09/23 01:23:18;;;;;;;1.52;1.38;;;;;;;;;;5132961;27;33781;-67
2023/09/23 01:25:46;;;;;;;2.88;1.40;;;;;;;;;;5133888;27;41594;-67
2023/09/23 01:28:14;;;;;;;2.15;1.95;;;;;;;;;;5134015;27;43225;-67
2023/09/23 01:30:43;;;;;;;1.50;1.40;;;;;;;;;;5120650;27;40652;-67
2023/09/23 01:33:13;;;;;;;1.65;1.20;;;;;;;;;;5134483;27;42186;-67
2023/09/23 01:35:42;;;;;;;2.17;1.38;;;;;;;;;;5133280;27;42167;-67
2023/09/23 01:38:11;;;;;;;1.63;1.40;;;;;;;;;;5116951;27;20227;-67
2023/09/23 01:40:41;;;;;;;1.05;0.90;;;;;;;;;;5133365;27;41241;-67
2023/09/23 01:43:10;;;;;;;1.02;0.95;;;;;;;;;;5134948;27;42290;-67
2023/09/23 01:45:39;;;;;;;1.30;1.05;;;;;;;;;;5115405;27;41324;-67
2023/09/23 01:48:08;;;;;;;0.80;0.70;;;;;;;;;;5115075;27;41892;-67
2023/09/23 01:50:36;;;;;;;1.38;0.73;;;;;;;;;;5134267;27;41123;-67
2023/09/23 01:53:04;;;;;;;0.75;0.60;;;;;;;;;;5134021;27;41280;-67
2023/09/23 01:55:33;;;;;;;0.85;0.70;;;;;;;;;;5133108;27;41901;-67
2023/09/23 01:58:03;;;;;;;1.20;0.88;;;;;;;;;;5131471;27;39790;-67
2023/09/23 02:00:32;;;;;;;1.10;0.80;;;;;;;;;;5114087;27;40081;-67
2023/09/23 02:03:00;;;;;;;1.15;0.80;;;;;;;;;;5130617;27;42135;-67
2023/09/23 02:05:28;;;;;;;1.33;0.90;;;;;;;;;;5128884;27;39899;-67
2023/09/23 02:07:56;;;;;;;1.10;0.82;;;;;;;;;;5111854;27;40994;-67
2023/09/23 02:10:26;;;;;;;1.00;0.90;;;;;;;;;;5128427;27;40180;-67
2023/09/23 02:12:55;;;;;;;0.90;0.80;;;;;;;;;;5131276;27;42753;-67
2023/09/23 02:15:24;;;;;;;2.25;1.02;;;;;;;;;;5129325;27;42681;-67
2023/09/23 02:17:53;;;;;;;1.05;0.82;;;;;;;;;;5129217;27;40428;-67
2023/09/23 02:20:21;;;;;;;1.33;1.02;;;;;;;;;;5128750;27;40346;-67
2023/09/23 02:22:50;;;;;;;2.58;0.85;;;;;;;;;;5129128;27;42385;-67
2023/09/23 02:25:18;;;;;;;1.10;1.00;;;;;;;;;;5116552;27;42059;-67
2023/09/23 02:27:46;;;;;;;2.17;1.13;;;;;;;;;;5129200;27;40681;-67
2023/09/23 02:30:14;;;;;;;1.50;1.30;;;;;;;;;;5129847;27;41348;-67
2023/09/23 02:32:44;;;;;;;1.40;1.02;;;;;;;;;;5130384;27;42164;-67
2023/09/23 02:35:13;;;;;;;1.15;1.05;;;;;;;;;;5130442;27;42327;-67
2023/09/23 02:37:41;;;;;;;1.20;1.10;;;;;;;;;;5110979;27;40023;-67
2023/09/23 02:40:12;;;;;;;2.25;1.75;;;;;;;;;;5111505;27;40313;-67
2023/09/23 02:42:40;;;;;;;1.30;1.20;;;;;;;;;;5130243;27;42333;-67
2023/09/23 02:45:10;;;;;;;1.25;1.15;;;;;;;;;;5110895;27;39779;-67
2023/09/23 02:47:38;;;;;;;1.38;1.27;;;;;;;;;;5129621;27;42737;-66
2023/09/23 02:50:09;;;;;;;1.45;1.15;;;;;;;;;;5129936;27;42668;-67
2023/09/23 02:52:38;;;;;;;2.55;1.95;;;;;;;;;;5124862;27;41835;-67
2023/09/23 02:55:11;;;;;;;1.80;1.52;;;;;;;;;;5135301;27;41959;-67
2023/09/23 02:57:39;;;;;;;2.67;2.42;;;;;;;;;;5126227;27;41308;-67
2023/09/23 03:00:16;;;;;;;2.05;1.75;;;;;;;;;;5126768;27;41497;-67
2023/09/23 03:02:46;;;;;;;2.20;2.00;;;;;;;;;;5126646;27;42083;-67
2023/09/23 03:05:17;;;;;;;3.95;3.38;;;;;;;;;;5129330;27;41854;-67
2023/09/23 03:07:48;;;;;;;2.20;1.63;;;;;;;;;;5126649;27;41622;-67
2023/09/23 03:10:19;;;;;;;1.85;1.20;;;;;;;;;;5126548;27;43009;-67
2023/09/23 03:13:01;;;;;;;2.15;1.95;;;;;;;;;;5128732;27;41349;-67
2023/09/23 03:15:34;;;;;;;2.85;2.58;;;;;;;;;;5110872;27;41389;-67
2023/09/23 03:18:03;;;;;;;2.65;2.45;;;;;;;;;;5110750;27;39783;-67
2023/09/23 03:20:34;;;;;;;4.03;3.63;;;;;;;;;;5109835;27;40237;-67
2023/09/23 03:23:03;;;;;;;3.65;3.35;;;;;;;;;;5127748;27;41010;-67
2023/09/23 03:25:31;;;;;;;5.45;4.95;;;;;;;;;;5125205;27;41968;-67
2023/09/23 03:27:59;;;;;;;4.30;3.78;;;;;;;;;;5129788;27;42665;-67
2023/09/23 03:30:27;;;;;;;3.88;3.47;;;;;;;;;;5110331;27;41456;-67
2023/09/23 03:32:56;;;;;;;2.97;2.53;;;;;;;;;;5110690;27;40189;-67
2023/09/23 03:35:24;;;;;;;3.80;3.42;;;;;;;;;;5129559;27;43389;-67
2023/09/23 03:37:54;;;;;;;5.82;5.22;;;;;;;;;;5110756;27;40077;-67
2023/09/23 03:40:25;;;;;;;6.90;6.00;;;;;;;;;;5126554;27;41313;-67
2023/09/23 03:42:53;;;;;;;8.18;6.55;;;;;;;;;;5126546;27;43163;-67
2023/09/23 03:45:21;;;;;;;5.82;5.32;;;;;;;;;;5110627;27;41306;-67
2023/09/23 03:47:49;;;;;;;5.47;4.47;;;;;;;;;;5109815;27;40297;-67
2023/09/23 03:50:18;;;;;;;8.45;7.63;;;;;;;;;;5110211;27;40273;-67
2023/09/23 03:52:46;;;;;;;6.07;4.55;;;;;;;;;;5110159;27;40002;-67
2023/09/23 03:55:18;;;;;;;8.02;7.03;;;;;;;;;;5112700;27;41496;-67
2023/09/23 03:57:46;;;;;;;4.03;3.63;;;;;;;;;;5109877;27;41458;-67
2023/09/23 04:00:16;;;;;;;4.10;3.63;;;;;;;;;;5129227;27;42574;-66
2023/09/23 04:02:47;;;;;;;8.27;7.45;;;;;;;;;;5127613;27;44333;-67
2023/09/23 04:05:15;;;;;;;7.00;6.30;;;;;;;;;;5110916;27;40028;-67
2023/09/23 04:07:49;;;;;;;3.67;3.35;;;;;;;;;;5109170;27;41878;-67
2023/09/23 04:10:19;;;;;;;4.68;4.22;;;;;;;;;;5125888;27;42993;-67
2023/09/23 04:12:47;;;;;;;8.02;6.72;;;;;;;;;;5127954;27;42517;-67
2023/09/23 04:15:15;;;;;;;8.80;7.75;;;;;;;;;;5127144;27;42655;-67
2023/09/23 04:17:43;;;;;;;5.28;4.63;;;;;;;;;;5128765;27;42189;-67
2023/09/23 04:20:14;;;;;;;7.55;6.78;;;;;;;;;;5128850;27;42162;-67
2023/09/23 04:22:42;;;;;;;3.30;3.00;;;;;;;;;;5123868;27;42395;-67
2023/09/23 04:25:13;;;;;;;7.05;6.35;;;;;;;;;;5127976;27;42348;-67
2023/09/23 04:27:43;;;;;;;5.43;4.93;;;;;;;;;;5127962;27;42528;-67
2023/09/23 04:30:11;;;;;;;5.25;4.75;;;;;;;;;;5127819;27;42182;-67
2023/09/23 04:32:40;;;;;;;4.97;4.57;;;;;;;;;;5127540;27;41426;-67
2023/09/23 04:35:08;;;;;;;5.30;4.80;;;;;;;;;;5128379;27;42636;-67
2023/09/23 04:37:37;;;;;;;6.30;5.70;;;;;;;;;;5127036;27;42877;-67
2023/09/23 04:40:08;;;;;;;6.40;5.80;;;;;;;;;;5128151;27;41651;-67
2023/09/23 04:42:36;;;;;;;7.07;5.78;;;;;;;;;;5124456;27;42400;-66
2023/09/23 04:45:06;;;;;;;5.43;4.85;;;;;;;;;;5128587;27;41271;-67
2023/09/23 04:47:35;;;;;;;7.82;7.05;;;;;;;;;;5128019;27;42304;-67
2023/09/23 04:50:04;;;;;;;4.70;4.22;;;;;;;;;;5128215;27;42057;-67
2023/09/23 04:52:33;;;;;;;6.88;6.25;;;;;;;;;;5128053;27;43117;-67
2023/09/23 04:55:01;;;;;;;6.20;5.53;;;;;;;;;;5128485;27;42439;-67
2023/09/23 04:57:29;;;;;;;7.28;6.07;;;;;;;;;;5108210;27;40451;-67
2023/09/23 04:59:57;;;;;;;8.15;7.32;;;;;;;;;;5128369;27;40988;-67
2023/09/23 05:02:27;;;;;;;5.32;4.63;;;;;;;;;;5127639;27;41482;-67
2023/09/23 05:04:55;;;;;;;4.80;4.30;;;;;;;;;;5127706;27;41959;-67
2023/09/23 05:07:25;;;;;;;7.43;6.72;;;;;;;;;;5127876;27;42122;-67
2023/09/23 05:09:55;;;;;;;4.80;4.35;;;;;;;;;;5127351;27;42560;-67
2023/09/23 05:12:23;;;;;;;6.20;5.60;;;;;;;;;;5124231;27;41233;-67
2023/09/23 05:14:52;;;;;;;5.30;4.80;;;;;;;;;;5128382;27;42373;-67
2023/09/23 05:17:26;;;;;;;4.38;3.97;;;;;;;;;;5128147;27;42213;-67
2023/09/23 05:19:55;;;;;;;5.13;4.63;;;;;;;;;;5126641;27;40080;-67
2023/09/23 05:22:23;;;;;;;5.47;5.00;;;;;;;;;;5128078;27;41719;-68
2023/09/23 05:24:59;;;;;;;5.07;4.55;;;;;;;;;;5126988;27;42660;-67
2023/09/23 05:27:31;;;;;;;4.80;4.40;;;;;;;;;;5126964;27;42262;-67
2023/09/23 05:30:00;;;;;;;4.88;4.47;;;;;;;;;;5127318;27;41992;-68
2023/09/23 05:32:27;;;;;;;7.22;6.35;;;;;;;;;;5126775;27;41231;-67
2023/09/23 05:35:00;;;;;;;5.00;4.43;;;;;;;;;;5131302;27;42253;-68
2023/09/23 05:37:28;;;;;;;4.70;4.30;;;;;;;;;;5128238;27;42020;-68
2023/09/23 05:39:57;;;;;;;5.72;4.57;;;;;;;;;;5130620;27;42576;-67
2023/09/23 05:42:26;;;;;;;4.72;3.92;;;;;;;;;;5131263;27;41436;-68
2023/09/23 05:44:55;;;;;;;4.45;3.88;;;;;;;;;;5131604;27;42212;-68
2023/09/23 05:47:23;;;;;;;5.72;5.22;;;;;;;;;;5130526;27;41932;-68
2023/09/23 05:49:51;;;;;;;4.47;4.07;;;;;;;;;;5130364;27;42383;-68
2023/09/23 05:52:20;;;;;;;4.35;3.95;;;;;;;;;;5131164;27;41749;-68
2023/09/23 05:54:49;;;;;;;6.55;5.47;;;;;;;;;;5129928;27;42562;-68
2023/09/23 05:57:17;;;;;;;4.15;3.75;;;;;;;;;;5130967;27;43177;-67
2023/09/23 05:59:45;;;;;;;5.22;4.60;;;;;;;;;;5130745;27;41280;-68
2023/09/23 06:02:13;;;;;;;6.03;5.32;;;;;;;;;;5130416;27;41349;-67
2023/09/23 06:04:41;;;;;;;4.20;3.60;;;;;;;;;;5130990;27;42072;-67
2023/09/23 06:07:09;;;;;;;5.03;4.50;;;;;;;;;;5129130;27;41470;-67
2023/09/23 06:09:39;;;;;;;6.95;5.85;;;;;;;;;;5129132;27;42736;-67
2023/09/23 06:12:07;;;;;;;5.13;4.63;;;;;;;;;;5130576;27;41493;-68
2023/09/23 06:14:35;;;;;;;8.40;6.60;;;;;;;;;;5129227;27;42270;-67
2023/09/23 06:17:03;;;;;;;5.20;4.65;;;;;;;;;;5130678;27;42735;-68
2023/09/23 06:19:33;;;;;;;5.07;4.57;;;;;;;;;;5129665;27;42007;-67
2023/09/23 06:22:01;;;;;;;4.55;4.10;;;;;;;;;;5129312;27;42334;-68
2023/09/23 06:24:29;;;;;;;4.53;3.88;;;;;;;;;;5128874;27;42840;-67
2023/09/23 06:26:58;;;;;;;3.90;3.10;;;;;;;;;;5130117;27;41696;-68
2023/09/23 06:29:27;;;;;;;4.70;3.85;;;;;;;;;;5129059;27;41218;-68
2023/09/23 06:31:55;;;;;;;4.93;4.53;;;;;;;;;;5129055;27;41955;-68
2023/09/23 06:34:23;;;;;;;4.47;4.00;;;;;;;;;;5129862;27;41242;-67
2023/09/23 06:36:51;;;;;;;6.03;5.43;;;;;;;;;;5128988;27;43314;-68
2023/09/23 06:39:23;;;;;;;5.75;5.10;;;;;;;;;;5129299;27;41562;-67
2023/09/23 06:41:51;;;;;;;3.83;3.42;;;;;;;;;;5126943;27;41755;-67
2023/09/23 06:44:20;;;;;;;5.25;4.38;;;;;;;;;;5128605;27;40643;-67
2023/09/23 06:46:49;;;;;;;4.55;3.85;;;;;;;;;;5129214;27;41735;-68
2023/09/23 06:49:18;;;;;;;4.70;4.30;;;;;;;;;;5127993;27;42155;-67
2023/09/23 06:51:46;;;;;;;3.33;3.03;;;;;;;;;;5128881;27;42771;-67
2023/09/23 06:54:14;;;;;;;3.58;3.25;;;;;;;;;;5126717;27;41551;-68
2023/09/23 06:56:42;;;;;;;5.05;4.18;;;;;;;;;;5133311;27;43173;-67
2023/09/23 06:59:10;;;;;;;6.90;4.20;;;;;;;;;;5129086;27;41522;-68
2023/09/23 07:01:39;;;;;;;5.07;3.70;;;;;;;;;;5110659;27;42521;-68
2023/09/23 07:04:08;;;;;;;5.68;4.95;;;;;;;;;;5128798;27;42192;-68
2023/09/23 07:06:37;;;;;;;4.60;3.80;;;;;;;;;;5126249;27;40933;-68
2023/09/23 07:09:05;;;;;;;5.47;3.85;;;;;;;;;;5129486;27;42708;-68
2023/09/23 07:11:33;;;;;;;6.40;3.92;;;;;;;;;;5128106;27;42782;-67
2023/09/23 07:14:05;;;;;;;5.57;4.57;;;;;;;;;;5129605;27;41522;-67
2023/09/23 07:16:34;;;;;;;4.72;4.22;;;;;;;;;;5126343;27;42018;-67
2023/09/23 07:19:03;;;;;;;5.65;4.55;;;;;;;;;;5125620;27;42171;-67
2023/09/23 07:21:31;;;;;;;8.00;5.68;;;;;;;;;;5127898;27;42273;-67
2023/09/23 07:23:59;;;;;;;5.38;4.57;;;;;;;;;;5128977;27;41909;-68
2023/09/23 07:26:27;;;;;;;6.38;5.72;;;;;;;;;;5127990;27;41417;-67
2023/09/23 07:28:56;;;;;;;6.60;5.90;;;;;;;;;;5126030;27;41632;-68
2023/09/23 07:31:24;;;;;;;6.80;4.75;;;;;;;;;;5128214;27;42049;-67
2023/09/23 07:33:52;;;;;;;6.57;5.80;;;;;;;;;;5128833;27;40778;-67
2023/09/23 07:36:22;;;;;;;7.07;5.38;;;;;;;;;;5128420;27;42082;-68
2023/09/23 07:38:50;;;;;;;10.00;4.93;;;;;;;;;;5125753;27;41900;-67
2023/09/23 07:41:18;;;;;;;5.28;3.65;;;;;;;;;;5128421;27;41304;-67
2023/09/23 07:43:48;;;;;;;6.68;4.30;;;;;;;;;;5128707;27;41313;-68
2023/09/23 07:46:16;;;;;;;5.13;4.43;;;;;;;;;;5129440;27;42028;-68
2023/09/23 07:48:44;;;;;;;5.75;4.65;;;;;;;;;;5128935;27;42918;-68
2023/09/23 07:51:13;;;;;;;7.15;2.97;;;;;;;;;;5129320;27;41672;-68
2023/09/23 07:53:42;;;;;;;4.78;3.05;;;;;;;;;;5128890;27;41052;-68
2023/09/23 07:56:10;;;;;;;5.57;3.92;;;;;;;;;;5129059;27;41874;-68
2023/09/23 07:58:38;;;;;;;3.75;2.97;;;;;;;;;;5130950;27;42052;-68
2023/09/23 08:01:06;;;;;;;4.28;3.88;;;;;;;;;;5129053;27;42024;-68
2023/09/23 08:03:34;;;;;;;5.45;4.95;;;;;;;;;;5128855;27;41490;-68
2023/09/23 08:06:02;;;;;;;8.48;3.95;;;;;;;;;;5129371;27;41606;-68
2023/09/23 08:08:30;;;;;;;3.58;2.70;;;;;;;;;;5128868;27;41432;-68
2023/09/23 08:10:59;;;;;;;8.80;3.55;;;;;;;;;;5129873;27;41649;-69
2023/09/23 08:13:27;;;;;;;8.82;2.78;;;;;;;;;;5128660;27;41495;-69
2023/09/23 08:15:57;;;;;;;12.32;3.17;;;;;;;;;;5129791;27;41579;-68
2023/09/23 08:18:25;;;;;;;4.45;3.40;;;;;;;;;;5129392;27;42242;-69
2023/09/23 08:20:56;;;;;;;5.53;4.40;;;;;;;;;;5128799;27;42686;-68
2023/09/23 08:23:24;;;;;;;25.45;4.05;;;;;;;;;;5128679;27;41601;-68
2023/09/23 08:25:52;;;;;;;7.18;3.47;;;;;;;;;;5129165;27;41476;-69
2023/09/23 08:28:21;;;;;;;11.00;2.55;;;;;;;;;;5128022;27;41702;-68
2023/09/23 08:30:50;;;;;;;6.47;3.28;;;;;;;;;;5128208;27;42482;-69
2023/09/23 08:33:18;;;;;;;6.70;4.15;;;;;;;;;;5128480;27;42489;-69
2023/09/23 08:35:47;;;;;;;6.82;5.13;;;;;;;;;;5121369;27;41921;-69
2023/09/23 08:38:15;;;;;;;7.40;3.20;;;;;;;;;;5128488;27;43255;-69
2023/09/23 08:40:43;;;;;;;5.43;4.63;;;;;;;;;;5127304;27;41571;-69
2023/09/23 08:43:11;;;;;;;4.43;3.58;;;;;;;;;;5128412;27;42228;-69
2023/09/23 08:45:44;;;;;;;4.95;4.45;;;;;;;;;;5125262;27;41777;-69
2023/09/23 08:48:12;;;;;;;5.28;3.58;;;;;;;;;;5125371;27;41733;-69
2023/09/23 08:50:42;;;;;;;5.30;4.20;;;;;;;;;;5123413;27;43081;-69
2023/09/23 08:53:11;;;;;;;9.07;3.83;;;;;;;;;;5126526;27;41097;-69
2023/09/23 08:55:39;;;;;;;5.95;3.70;;;;;;;;;;5128488;27;42256;-69
2023/09/23 08:58:07;;;;;;;3.95;2.70;;;;;;;;;;5116602;27;42020;-69
2023/09/23 09:00:35;;;;;;;9.77;2.70;;;;;;;;;;5126630;27;41699;-70
2023/09/23 09:03:05;;;;;;;6.22;2.75;;;;;;;;;;5128554;27;41734;-68
2023/09/23 09:05:40;;;;;;;9.25;3.53;;;;;;;;;;5127936;27;41365;-68
2023/09/23 09:08:08;;;;;;;9.98;3.85;;;;;;;;;;5133533;27;41370;-68
2023/09/23 09:10:36;;;;;;;4.28;3.10;;;;;;;;;;5130506;27;42428;-68
2023/09/23 09:13:05;;;;;;;7.50;3.20;;;;;;;;;;5131589;27;41171;-68
2023/09/23 09:15:35;;;;;;;6.93;3.20;;;;;;;;;;5128706;27;41922;-68
2023/09/23 09:18:05;;;;;;;4.63;2.47;;;;;;;;;;5130803;27;43085;-68
2023/09/23 09:20:33;;;;;;;5.03;3.17;;;;;;;;;;5129517;27;41144;-68
2023/09/23 09:23:01;;;;;;;5.38;2.90;;;;;;;;;;5121130;27;40296;-68
2023/09/23 09:25:31;;;;;;;5.88;2.97;;;;;;;;;;5130576;27;42096;-68
2023/09/23 09:27:59;;;;;;;7.25;3.95;;;;;;;;;;5131433;27;42359;-68
2023/09/23 09:30:27;;;;;;;2.97;2.67;;;;;;;;;;5130798;27;42106;-68
2023/09/23 09:32:56;;;;;;;4.28;3.55;;;;;;;;;;5129627;27;42326;-68
2023/09/23 09:35:26;;;;;;;5.32;3.60;;;;;;;;;;5137029;27;41287;-68
2023/09/23 09:37:54;;;;;;;5.65;2.22;;;;;;;;;;5130028;27;42487;-68
2023/09/23 09:40:42;;;;;;;3.75;2.42;;;;;;;;;;5128896;27;42272;-68
2023/09/23 09:43:10;;;;;;;5.28;2.88;;;;;;;;;;5131366;27;42116;-68
2023/09/23 09:45:40;;;;;;;3.90;2.70;;;;;;;;;;5130480;27;41906;-68
2023/09/23 09:48:08;;;;;;;3.65;2.17;;;;;;;;;;5130806;27;41358;-68
2023/09/23 09:50:38;;;;;;;5.60;2.15;;;;;;;;;;5128975;27;42913;-68
2023/09/23 09:53:06;;;;;;;4.40;2.00;;;;;;;;;;5130856;27;41044;-68
2023/09/23 09:55:34;;;;;;;4.53;2.70;;;;;;;;;;5131298;27;42614;-68
2023/09/23 09:58:02;;;;;;;7.07;1.85;;;;;;;;;;5131673;27;43037;-68
2023/09/23 10:00:40;;;;;;;3.42;2.63;;;;;;;;;;5130380;27;41890;-68
2023/09/23 10:03:11;;;;;;;4.03;2.42;;;;;;;;;;5130988;27;42678;-68
2023/09/23 10:05:46;;;;;;;4.68;2.40;;;;;;;;;;5127574;27;42114;-68
2023/09/23 10:08:15;;;;;;;4.90;2.50;;;;;;;;;;5116924;27;42364;-68
2023/09/23 10:10:47;;;;;;;3.33;2.30;;;;;;;;;;5130700;27;41604;-68
2023/09/23 10:13:15;;;;;;;3.20;2.63;;;;;;;;;;5130138;27;40955;-68
2023/09/23 10:15:43;;;;;;;4.35;2.10;;;;;;;;;;5130116;27;41978;-68
2023/09/23 10:18:11;;;;;;;4.82;2.30;;;;;;;;;;5116770;27;41748;-68
2023/09/23 10:20:40;;;;;;;2.55;1.77;;;;;;;;;;5129022;27;41620;-68
2023/09/23 10:23:10;;;;;;;3.83;1.98;;;;;;;;;;5127859;27;40808;-68
2023/09/23 10:25:39;;;;;;;3.20;2.13;;;;;;;;;;5129980;27;42732;-68
2023/09/23 10:28:07;;;;;;;2.53;1.48;;;;;;;;;;5115654;27;41860;-68
2023/09/23 10:30:35;;;;;;;2.92;1.63;;;;;;;;;;5130476;27;42737;-68
2023/09/23 10:33:04;;;;;;;3.42;2.22;;;;;;;;;;5130962;27;41527;-68
2023/09/23 10:35:33;;;;;;;3.50;2.05;;;;;;;;;;5129612;27;41494;-68
2023/09/23 10:38:06;;;;;;;2.85;1.85;;;;;;;;;;5127494;27;42105;-68
2023/09/23 10:40:35;;;;;;;2.70;2.22;;;;;;;;;;5129932;27;42248;-68
2023/09/23 10:43:08;;;;;;;3.13;1.52;;;;;;;;;;5129126;27;41713;-68
2023/09/23 10:45:36;;;;;;;3.22;2.17;;;;;;;;;;5129533;27;41991;-68
2023/09/23 10:48:05;;;;;;;2.70;1.60;;;;;;;;;;5130488;27;41847;-68
2023/09/23 10:50:33;;;;;;;2.25;1.58;;;;;;;;;;5114637;27;41158;-68
2023/09/23 10:53:01;;;;;;;4.07;2.40;;;;;;;;;;5130653;27;41739;-68
2023/09/23 10:55:29;;;;;;;2.60;1.70;;;;;;;;;;5111241;27;41125;-68
2023/09/23 10:57:58;;;;;;;3.53;2.05;;;;;;;;;;5130117;27;42168;-68
2023/09/23 11:00:28;;;;;;;2.05;1.70;;;;;;;;;;5129876;27;41283;-68
2023/09/23 11:02:56;;;;;;;2.63;2.10;;;;;;;;;;5129551;27;42517;-68
2023/09/23 11:05:24;;;;;;;2.03;1.73;;;;;;;;;;5129791;27;42580;-68
2023/09/23 11:07:54;;;;;;;4.22;2.08;;;;;;;;;;5130376;27;41553;-68
2023/09/23 11:10:22;;;;;;;4.75;1.73;;;;;;;;;;5128150;27;41108;-68
2023/09/23 11:12:50;;;;;;;3.92;1.30;;;;;;;;;;5129912;27;41881;-68
2023/09/23 11:15:21;;;;;;;4.70;2.25;;;;;;;;;;5130629;27;42347;-68
2023/09/23 11:17:49;;;;;;;5.88;3.08;;;;;;;;;;5126464;27;42612;-68
2023/09/23 11:20:17;;;;;;;6.47;2.70;;;;;;;;;;5129860;27;41082;-68
2023/09/23 11:22:45;;;;;;;6.45;2.25;;;;;;;;;;5127458;27;41746;-69
2023/09/23 11:25:13;;;;;;;4.95;2.58;;;;;;;;;;5127042;27;41974;-69
2023/09/23 11:27:43;;;;;;;7.15;2.92;;;;;;;;;;5130068;27;41685;-68
2023/09/23 11:30:11;;;;;;;7.85;1.88;;;;;;;;;;5130397;27;41454;-68
2023/09/23 11:32:41;;;;;;;7.50;2.80;;;;;;;;;;5128707;27;42058;-68
2023/09/23 11:35:09;;;;;;;6.22;2.00;;;;;;;;;;5131061;27;40555;-69
2023/09/23 11:37:37;;;;;;;6.70;2.30;;;;;;;;;;5129735;27;42431;-69
2023/09/23 11:40:08;;;;;;;7.82;2.58;;;;;;;;;;5129332;27;41412;-68
2023/09/23 11:42:36;;;;;;;5.45;2.35;;;;;;;;;;5126842;27;42712;-68
2023/09/23 11:45:04;;;;;;;6.05;2.72;;;;;;;;;;5110902;27;41189;-68
2023/09/23 11:47:32;;;;;;;3.10;2.00;;;;;;;;;;5129417;27;42395;-69
2023/09/23 11:50:03;;;;;;;6.15;2.88;;;;;;;;;;5129644;27;42514;-69
2023/09/23 11:52:31;;;;;;;6.97;1.77;;;;;;;;;;5127702;27;42000;-68
2023/09/23 11:54:59;;;;;;;3.63;2.30;;;;;;;;;;5129888;27;42548;-68
2023/09/23 11:57:27;;;;;;;6.03;2.70;;;;;;;;;;5129331;27;42351;-69
2023/09/23 11:59:55;;;;;;;5.43;2.85;;;;;;;;;;5128437;27;33029;-68
2023/09/23 12:02:23;;;;;;;5.75;2.90;;;;;;;;;;5128369;27;41446;-68
2023/09/23 12:04:51;;;;;;;5.05;2.75;;;;;;;;;;5128143;27;42152;-68
2023/09/23 12:07:21;;;;;;;4.45;1.45;;;;;;;;;;5126727;27;42083;-68
2023/09/23 12:09:49;;;;;;;4.30;2.28;;;;;;;;;;5127901;27;42399;-68
2023/09/23 12:12:18;;;;;;;4.72;2.53;;;;;;;;;;5127451;27;42482;-67
2023/09/23 12:14:48;;;;;;;10.85;3.00;;;;;;;;;;5126078;27;42351;-68
2023/09/23 12:17:16;;;;;;;11.85;3.20;;;;;;;;;;5128324;27;41286;-67
2023/09/23 12:19:44;;;;;;;6.15;3.20;;;;;;;;;;5128744;27;42671;-67
2023/09/23 12:22:15;;;;;;;9.57;3.42;;;;;;;;;;5127823;27;41832;-67
2023/09/23 12:24:45;;;;;;;6.80;3.17;;;;;;;;;;5127794;27;41593;-67
2023/09/23 12:27:13;;;;;;;8.82;2.67;;;;;;;;;;5127444;27;41309;-67
2023/09/23 12:29:41;;;;;;;8.80;3.00;;;;;;;;;;5127503;27;41909;-67
2023/09/23 12:32:10;;;;;;;8.38;2.50;;;;;;;;;;5127670;27;43294;-67
2023/09/23 12:34:38;;;;;;;6.00;2.55;;;;;;;;;;5126666;27;41499;-67
2023/09/23 12:37:06;;;;;;;8.95;2.67;;;;;;;;;;5128626;27;42315;-67
2023/09/23 12:39:34;;;;;;;9.95;2.67;;;;;;;;;;5127581;27;41608;-67
2023/09/23 12:42:03;;;;;;;13.38;2.80;;;;;;;;;;5126986;27;42184;-67
2023/09/23 12:44:31;;;;;;;12.70;2.80;;;;;;;;;;5126091;27;42097;-67
2023/09/23 12:46:59;;;;;;;7.70;2.53;;;;;;;;;;5127389;27;42326;-67
2023/09/23 12:49:28;;;;;;;11.82;2.63;;;;;;;;;;5127302;27;42724;-68
2023/09/23 12:51:55;;;;;;;17.80;3.20;;;;;;;;;;5109353;27;42171;-68
2023/09/23 12:54:23;;;;;;;11.98;3.05;;;;;;;;;;5127816;27;41448;-68
2023/09/23 12:56:51;;;;;;;13.32;2.60;;;;;;;;;;5131994;27;41754;-68
2023/09/23 12:59:21;;;;;;;13.80;2.70;;;;;;;;;;5127843;27;42577;-69
2023/09/23 13:01:49;;;;;;;21.58;3.65;;;;;;;;;;5127436;27;41103;-71
2023/09/23 13:04:18;;;;;;;7.68;3.10;;;;;;;;;;5128662;27;41201;-70
2023/09/23 13:06:47;;;;;;;13.10;3.00;;;;;;;;;;5127635;27;41268;-68
2023/09/23 13:09:15;;;;;;;11.35;3.20;;;;;;;;;;5127522;27;42449;-68
2023/09/23 13:11:44;;;;;;;11.35;2.88;;;;;;;;;;5124425;27;42124;-68
2023/09/23 13:14:12;;;;;;;18.98;3.35;;;;;;;;;;5128124;27;42823;-68
2023/09/23 13:16:41;;;;;;;9.30;2.42;;;;;;;;;;5126404;27;42705;-69
2023/09/23 13:19:13;;;;;;;10.98;2.40;;;;;;;;;;5127966;27;41758;-69
2023/09/23 13:21:41;;;;;;;10.40;3.00;;;;;;;;;;5129044;27;41083;-69
2023/09/23 13:24:09;;;;;;;5.38;2.25;;;;;;;;;;5126973;27;42666;-68
2023/09/23 13:26:37;;;;;;;8.52;2.20;;;;;;;;;;5127755;27;42691;-68
2023/09/23 13:29:05;;;;;;;8.98;3.17;;;;;;;;;;5127854;27;41457;-71
2023/09/23 13:31:33;;;;;;;13.88;2.90;;;;;;;;;;5125687;27;42524;-72
2023/09/23 13:34:03;;;;;;;11.68;3.05;;;;;;;;;;5127395;27;41406;-69
2023/09/23 13:36:33;;;;;;;15.73;2.05;;;;;;;;;;5127173;27;41976;-70
2023/09/23 13:39:02;;;;;;;21.35;2.95;;;;;;;;;;5128005;27;42470;-69
2023/09/23 13:41:30;;;;;;;9.85;2.13;;;;;;;;;;5126373;27;40867;-70
2023/09/23 13:43:58;;;;;;;6.25;1.95;;;;;;;;;;5127943;27;41603;-70
2023/09/23 13:46:27;;;;;;;10.90;2.28;;;;;;;;;;5107453;27;42940;-70
2023/09/23 13:48:55;;;;;;;8.10;2.00;;;;;;;;;;5109466;27;40996;-71
2023/09/23 13:51:24;;;;;;;6.10;1.90;;;;;;;;;;5125649;27;42097;-71
2023/09/23 13:53:52;;;;;;;7.68;2.33;;;;;;;;;;5127425;27;41985;-70
2023/09/23 13:56:20;;;;;;;5.07;1.63;;;;;;;;;;5130883;27;42000;-71
2023/09/23 13:58:48;;;;;;;8.85;1.80;;;;;;;;;;5129635;27;42447;-71
2023/09/23 14:01:19;;;;;;;7.65;1.80;;;;;;;;;;5128367;27;41069;-71
2023/09/23 14:03:48;;;;;;;7.00;1.75;;;;;;;;;;5130606;27;42145;-71
2023/09/23 14:06:16;;;;;;;5.00;1.80;;;;;;;;;;5129130;27;42825;-71
2023/09/23 14:08:45;;;;;;;5.32;2.08;;;;;;;;;;5130861;27;40783;-71
2023/09/23 14:11:14;;;;;;;5.07;1.63;;;;;;;;;;5130658;27;42990;-71
2023/09/23 14:13:43;;;;;;;4.00;1.50;;;;;;;;;;5129971;27;41446;-70
2023/09/23 14:16:12;;;;;;;3.63;1.50;;;;;;;;;;5130453;27;40689;-70
2023/09/23 14:18:40;;;;;;;8.52;2.08;;;;;;;;;;5111680;27;41254;-70
2023/09/23 14:21:08;;;;;;;6.65;2.08;;;;;;;;;;5126418;27;40576;-71
2023/09/23 14:23:36;;;;;;;6.55;1.73;;;;;;;;;;5129020;27;42054;-70
2023/09/23 14:26:06;;;;;;;3.13;1.70;;;;;;;;;;5129517;27;42187;-70
2023/09/23 14:28:34;;;;;;;4.10;1.50;;;;;;;;;;5108912;27;40924;-70
2023/09/23 14:31:02;;;;;;;5.78;2.00;;;;;;;;;;5123468;27;41896;-70
2023/09/23 14:33:30;;;;;;;3.58;1.42;;;;;;;;;;5128733;27;40146;-70
2023/09/23 14:36:00;;;;;;;3.90;1.92;;;;;;;;;;5129827;27;41462;-70
2023/09/23 14:38:28;;;;;;;8.13;1.73;;;;;;;;;;5110954;27;41310;-69
2023/09/23 14:40:56;;;;;;;2.60;1.40;;;;;;;;;;5129417;27;41389;-70
2023/09/23 14:43:26;;;;;;;8.07;2.03;;;;;;;;;;5125179;27;41339;-70
2023/09/23 14:45:54;;;;;;;2.05;1.23;;;;;;;;;;5117943;27;41865;-70
2023/09/23 14:48:22;;;;;;;5.25;1.20;;;;;;;;;;5127532;27;42123;-70
2023/09/23 14:50:50;;;;;;;4.40;1.02;;;;;;;;;;5110309;27;40773;-70
2023/09/23 14:53:19;;;;;;;11.77;1.30;;;;;;;;;;5129264;27;42259;-70